Alder, Washington
Current Conditions -  °F | °C
As of 12:08 AM on Saturday 20 Dec 2014 (Local Time) from KGRF Reporting Station
Light Rain Light Rain  
Wind Chill: 45°   Ceiling: 3600
Heat Index: 45°   Visibility: 10mi
Dew Point: 43°   Wind: 3mph
Humidity: 93%   Direction: 140°SE
Pressure: 29.84"   Gusts: NA
Location:  46.8687°N, 122.208°W
Report Text: KGRF 200808Z 14003KT 10SM -RA BKN036 07/06 A2984 RMK AO2A RAB02
Loading
Personal Weather Stations






























Interactive Weather Map New forecast layout! Learn more

10-Day Weather Forecast

Advertisements
Track Severe Weather on mobile